sensor_id;sensor_type;location;lat;lon;timestamp;P1;durP1;ratioP1;P2;durP2;ratioP2
45536;SDS011;31262;51.978;5.924;2022-08-21T00:00:43;5.15;;;1.40;;
45536;SDS011;31262;51.978;5.924;2022-08-21T00:03:09;3.15;;;1.23;;
45536;SDS011;31262;51.978;5.924;2022-08-21T00:05:37;4.15;;;1.10;;
45536;SDS011;31262;51.978;5.924;2022-08-21T00:08:05;4.32;;;1.10;;
45536;SDS011;31262;51.978;5.924;2022-08-21T00:10:31;3.15;;;1.00;;
45536;SDS011;31262;51.978;5.924;2022-08-21T00:12:57;4.88;;;1.10;;
45536;SDS011;31262;51.978;5.924;2022-08-21T00:15:25;2.55;;;0.90;;
45536;SDS011;31262;51.978;5.924;2022-08-21T00:17:52;3.55;;;0.90;;
45536;SDS011;31262;51.978;5.924;2022-08-21T00:20:19;4.65;;;1.17;;
45536;SDS011;31262;51.978;5.924;2022-08-21T00:22:44;3.38;;;1.25;;
45536;SDS011;31262;51.978;5.924;2022-08-21T00:25:10;3.90;;;1.05;;
45536;SDS011;31262;51.978;5.924;2022-08-21T00:27:38;3.50;;;1.08;;
45536;SDS011;31262;51.978;5.924;2022-08-21T00:30:05;3.88;;;1.30;;
45536;SDS011;31262;51.978;5.924;2022-08-21T00:32:31;3.45;;;1.27;;
45536;SDS011;31262;51.978;5.924;2022-08-21T00:34:58;3.22;;;0.93;;
45536;SDS011;31262;51.978;5.924;2022-08-21T00:37:24;3.17;;;1.20;;
45536;SDS011;31262;51.978;5.924;2022-08-21T00:39:50;3.95;;;1.65;;
45536;SDS011;31262;51.978;5.924;2022-08-21T00:42:16;3.13;;;1.30;;
45536;SDS011;31262;51.978;5.924;2022-08-21T00:44:43;4.38;;;1.52;;
45536;SDS011;31262;51.978;5.924;2022-08-21T00:47:10;5.53;;;1.50;;
45536;SDS011;31262;51.978;5.924;2022-08-21T00:49:36;3.30;;;0.98;;
45536;SDS011;31262;51.978;5.924;2022-08-21T00:52:03;4.13;;;1.27;;
45536;SDS011;31262;51.978;5.924;2022-08-21T00:54:32;3.55;;;1.10;;
45536;SDS011;31262;51.978;5.924;2022-08-21T00:57:00;4.03;;;1.27;;
45536;SDS011;31262;51.978;5.924;2022-08-21T00:59:30;4.82;;;1.40;;
45536;SDS011;31262;51.978;5.924;2022-08-21T01:01:59;5.07;;;1.20;;
45536;SDS011;31262;51.978;5.924;2022-08-21T01:04:25;4.20;;;1.30;;
45536;SDS011;31262;51.978;5.924;2022-08-21T01:06:51;5.10;;;1.50;;
45536;SDS011;31262;51.978;5.924;2022-08-21T01:09:17;3.90;;;1.17;;
45536;SDS011;31262;51.978;5.924;2022-08-21T01:11:43;3.35;;;1.20;;
45536;SDS011;31262;51.978;5.924;2022-08-21T01:14:10;5.07;;;1.40;;
45536;SDS011;31262;51.978;5.924;2022-08-21T01:16:37;4.80;;;1.33;;
45536;SDS011;31262;51.978;5.924;2022-08-21T01:19:04;3.95;;;1.27;;
45536;SDS011;31262;51.978;5.924;2022-08-21T01:21:33;4.43;;;1.02;;
45536;SDS011;31262;51.978;5.924;2022-08-21T01:23:59;3.45;;;0.98;;
45536;SDS011;31262;51.978;5.924;2022-08-21T01:26:26;5.55;;;1.30;;
45536;SDS011;31262;51.978;5.924;2022-08-21T01:31:37;4.45;;;1.58;;
45536;SDS011;31262;51.978;5.924;2022-08-21T01:34:03;5.05;;;1.27;;
45536;SDS011;31262;51.978;5.924;2022-08-21T01:36:30;4.80;;;1.85;;
45536;SDS011;31262;51.978;5.924;2022-08-21T01:38:56;3.65;;;1.23;;
45536;SDS011;31262;51.978;5.924;2022-08-21T01:41:22;3.90;;;1.35;;
45536;SDS011;31262;51.978;5.924;2022-08-21T01:43:48;3.70;;;1.27;;
45536;SDS011;31262;51.978;5.924;2022-08-21T01:46:13;4.53;;;1.60;;
45536;SDS011;31262;51.978;5.924;2022-08-21T01:48:39;4.60;;;1.77;;
45536;SDS011;31262;51.978;5.924;2022-08-21T01:51:07;4.15;;;1.40;;
45536;SDS011;31262;51.978;5.924;2022-08-21T01:53:33;4.18;;;0.98;;
45536;SDS011;31262;51.978;5.924;2022-08-21T01:56:00;4.25;;;1.40;;
45536;SDS011;31262;51.978;5.924;2022-08-21T01:58:27;2.90;;;1.02;;
45536;SDS011;31262;51.978;5.924;2022-08-21T02:00:52;3.10;;;0.93;;
45536;SDS011;31262;51.978;5.924;2022-08-21T02:03:18;3.00;;;1.00;;
45536;SDS011;31262;51.978;5.924;2022-08-21T02:05:44;3.75;;;1.65;;
45536;SDS011;31262;51.978;5.924;2022-08-21T02:08:11;4.20;;;1.27;;
45536;SDS011;31262;51.978;5.924;2022-08-21T02:10:37;2.95;;;0.98;;
45536;SDS011;31262;51.978;5.924;2022-08-21T02:13:03;5.10;;;1.50;;
45536;SDS011;31262;51.978;5.924;2022-08-21T02:15:29;3.90;;;1.17;;
45536;SDS011;31262;51.978;5.924;2022-08-21T02:17:57;4.97;;;1.33;;
45536;SDS011;31262;51.978;5.924;2022-08-21T02:20:36;3.55;;;1.08;;
45536;SDS011;31262;51.978;5.924;2022-08-21T02:23:03;3.65;;;1.30;;
45536;SDS011;31262;51.978;5.924;2022-08-21T02:25:31;3.97;;;1.02;;
45536;SDS011;31262;51.978;5.924;2022-08-21T02:27:57;4.40;;;1.02;;
45536;SDS011;31262;51.978;5.924;2022-08-21T02:30:25;3.05;;;0.98;;
45536;SDS011;31262;51.978;5.924;2022-08-21T02:32:52;5.30;;;1.15;;
45536;SDS011;31262;51.978;5.924;2022-08-21T02:35:19;4.15;;;1.25;;
45536;SDS011;31262;51.978;5.924;2022-08-21T02:37:49;3.67;;;1.23;;
45536;SDS011;31262;51.978;5.924;2022-08-21T02:40:17;4.80;;;1.20;;
45536;SDS011;31262;51.978;5.924;2022-08-21T02:42:44;4.80;;;1.30;;
45536;SDS011;31262;51.978;5.924;2022-08-21T02:45:11;5.35;;;1.67;;
45536;SDS011;31262;51.978;5.924;2022-08-21T02:47:37;2.72;;;0.98;;
45536;SDS011;31262;51.978;5.924;2022-08-21T02:50:03;3.40;;;1.20;;
45536;SDS011;31262;51.978;5.924;2022-08-21T02:52:30;3.60;;;1.25;;
45536;SDS011;31262;51.978;5.924;2022-08-21T02:54:55;5.57;;;1.25;;
45536;SDS011;31262;51.978;5.924;2022-08-21T02:57:21;4.88;;;1.50;;
45536;SDS011;31262;51.978;5.924;2022-08-21T02:59:47;3.67;;;1.13;;
45536;SDS011;31262;51.978;5.924;2022-08-21T03:02:12;4.70;;;1.30;;
45536;SDS011;31262;51.978;5.924;2022-08-21T03:04:38;4.07;;;1.42;;
45536;SDS011;31262;51.978;5.924;2022-08-21T03:07:04;3.88;;;1.25;;
45536;SDS011;31262;51.978;5.924;2022-08-21T03:09:30;3.47;;;1.13;;
45536;SDS011;31262;51.978;5.924;2022-08-21T03:11:55;5.13;;;1.33;;
45536;SDS011;31262;51.978;5.924;2022-08-21T03:14:21;4.68;;;1.88;;
45536;SDS011;31262;51.978;5.924;2022-08-21T03:16:46;4.53;;;1.67;;
45536;SDS011;31262;51.978;5.924;2022-08-21T03:19:12;3.70;;;1.40;;
45536;SDS011;31262;51.978;5.924;2022-08-21T03:21:38;3.63;;;1.20;;
45536;SDS011;31262;51.978;5.924;2022-08-21T03:24:03;4.15;;;1.10;;
45536;SDS011;31262;51.978;5.924;2022-08-21T03:26:29;2.92;;;1.20;;
45536;SDS011;31262;51.978;5.924;2022-08-21T03:28:55;3.72;;;1.25;;
45536;SDS011;31262;51.978;5.924;2022-08-21T03:31:22;3.90;;;1.10;;
45536;SDS011;31262;51.978;5.924;2022-08-21T03:33:48;4.55;;;1.48;;
45536;SDS011;31262;51.978;5.924;2022-08-21T03:36:14;4.38;;;1.20;;
45536;SDS011;31262;51.978;5.924;2022-08-21T03:38:40;4.47;;;2.00;;
45536;SDS011;31262;51.978;5.924;2022-08-21T03:41:07;3.65;;;1.20;;
45536;SDS011;31262;51.978;5.924;2022-08-21T03:43:33;4.32;;;1.35;;
45536;SDS011;31262;51.978;5.924;2022-08-21T03:46:02;4.93;;;1.60;;
45536;SDS011;31262;51.978;5.924;2022-08-21T03:48:29;4.25;;;1.88;;
45536;SDS011;31262;51.978;5.924;2022-08-21T03:50:55;3.97;;;1.70;;
45536;SDS011;31262;51.978;5.924;2022-08-21T03:53:21;4.05;;;1.35;;
45536;SDS011;31262;51.978;5.924;2022-08-21T03:55:48;4.38;;;1.65;;
45536;SDS011;31262;51.978;5.924;2022-08-21T03:58:15;4.68;;;1.48;;
45536;SDS011;31262;51.978;5.924;2022-08-21T04:00:42;3.92;;;1.30;;
45536;SDS011;31262;51.978;5.924;2022-08-21T04:03:10;4.22;;;1.30;;
45536;SDS011;31262;51.978;5.924;2022-08-21T04:05:35;3.00;;;1.08;;
45536;SDS011;31262;51.978;5.924;2022-08-21T04:08:03;4.95;;;1.10;;
45536;SDS011;31262;51.978;5.924;2022-08-21T04:10:30;3.28;;;0.98;;
45536;SDS011;31262;51.978;5.924;2022-08-21T04:12:57;3.60;;;1.70;;
45536;SDS011;31262;51.978;5.924;2022-08-21T04:15:24;3.60;;;1.52;;
45536;SDS011;31262;51.978;5.924;2022-08-21T04:17:50;4.72;;;1.40;;
45536;SDS011;31262;51.978;5.924;2022-08-21T04:20:16;3.63;;;1.23;;
45536;SDS011;31262;51.978;5.924;2022-08-21T04:22:43;3.47;;;1.55;;
45536;SDS011;31262;51.978;5.924;2022-08-21T04:25:11;4.05;;;1.23;;
45536;SDS011;31262;51.978;5.924;2022-08-21T04:27:37;3.30;;;0.93;;
45536;SDS011;31262;51.978;5.924;2022-08-21T04:30:05;5.22;;;1.65;;
45536;SDS011;31262;51.978;5.924;2022-08-21T04:32:31;2.92;;;1.23;;
45536;SDS011;31262;51.978;5.924;2022-08-21T04:35:00;3.15;;;1.30;;
45536;SDS011;31262;51.978;5.924;2022-08-21T04:37:29;4.10;;;1.77;;
45536;SDS011;31262;51.978;5.924;2022-08-21T04:39:55;3.30;;;1.38;;
45536;SDS011;31262;51.978;5.924;2022-08-21T04:42:23;4.10;;;1.70;;
45536;SDS011;31262;51.978;5.924;2022-08-21T04:44:52;3.95;;;1.20;;
45536;SDS011;31262;51.978;5.924;2022-08-21T04:47:18;4.07;;;1.48;;
45536;SDS011;31262;51.978;5.924;2022-08-21T04:49:44;4.40;;;1.45;;
45536;SDS011;31262;51.978;5.924;2022-08-21T04:52:11;4.18;;;1.35;;
45536;SDS011;31262;51.978;5.924;2022-08-21T04:54:38;5.07;;;1.05;;
45536;SDS011;31262;51.978;5.924;2022-08-21T04:57:05;3.17;;;1.38;;
45536;SDS011;31262;51.978;5.924;2022-08-21T04:59:40;3.08;;;1.10;;
45536;SDS011;31262;51.978;5.924;2022-08-21T05:02:09;3.83;;;1.10;;
45536;SDS011;31262;51.978;5.924;2022-08-21T05:04:37;3.35;;;1.15;;
45536;SDS011;31262;51.978;5.924;2022-08-21T05:07:10;2.95;;;1.13;;
45536;SDS011;31262;51.978;5.924;2022-08-21T05:09:41;3.88;;;1.30;;
45536;SDS011;31262;51.978;5.924;2022-08-21T05:12:07;3.45;;;1.08;;
45536;SDS011;31262;51.978;5.924;2022-08-21T05:14:33;3.05;;;1.30;;
45536;SDS011;31262;51.978;5.924;2022-08-21T05:16:59;2.92;;;0.90;;
45536;SDS011;31262;51.978;5.924;2022-08-21T05:19:24;3.47;;;1.10;;
45536;SDS011;31262;51.978;5.924;2022-08-21T05:21:50;4.07;;;1.33;;
45536;SDS011;31262;51.978;5.924;2022-08-21T05:24:16;4.22;;;0.95;;
45536;SDS011;31262;51.978;5.924;2022-08-21T05:26:43;3.30;;;1.00;;
45536;SDS011;31262;51.978;5.924;2022-08-21T05:29:09;3.38;;;1.17;;
45536;SDS011;31262;51.978;5.924;2022-08-21T05:31:36;2.80;;;1.27;;
45536;SDS011;31262;51.978;5.924;2022-08-21T05:34:02;3.35;;;1.10;;
45536;SDS011;31262;51.978;5.924;2022-08-21T05:36:28;2.97;;;1.05;;
45536;SDS011;31262;51.978;5.924;2022-08-21T05:38:54;2.53;;;0.80;;
45536;SDS011;31262;51.978;5.924;2022-08-21T05:41:20;3.20;;;1.17;;
45536;SDS011;31262;51.978;5.924;2022-08-21T05:43:45;3.28;;;1.27;;
45536;SDS011;31262;51.978;5.924;2022-08-21T05:46:11;3.00;;;1.00;;
45536;SDS011;31262;51.978;5.924;2022-08-21T05:48:37;4.30;;;1.33;;
45536;SDS011;31262;51.978;5.924;2022-08-21T05:51:06;2.20;;;0.75;;
45536;SDS011;31262;51.978;5.924;2022-08-21T05:53:34;5.57;;;1.55;;
45536;SDS011;31262;51.978;5.924;2022-08-21T05:56:00;4.07;;;1.63;;
45536;SDS011;31262;51.978;5.924;2022-08-21T05:58:28;4.18;;;1.63;;
45536;SDS011;31262;51.978;5.924;2022-08-21T06:00:55;4.38;;;1.73;;
45536;SDS011;31262;51.978;5.924;2022-08-21T06:03:23;4.88;;;2.53;;
45536;SDS011;31262;51.978;5.924;2022-08-21T06:05:54;6.30;;;2.72;;
45536;SDS011;31262;51.978;5.924;2022-08-21T06:08:21;7.82;;;3.50;;
45536;SDS011;31262;51.978;5.924;2022-08-21T06:10:48;3.75;;;1.95;;
45536;SDS011;31262;51.978;5.924;2022-08-21T06:13:15;6.82;;;2.80;;
45536;SDS011;31262;51.978;5.924;2022-08-21T06:15:43;6.30;;;3.20;;
45536;SDS011;31262;51.978;5.924;2022-08-21T06:18:09;6.85;;;4.28;;
45536;SDS011;31262;51.978;5.924;2022-08-21T06:20:35;8.25;;;5.03;;
45536;SDS011;31262;51.978;5.924;2022-08-21T06:23:01;7.35;;;3.50;;
45536;SDS011;31262;51.978;5.924;2022-08-21T06:25:28;4.30;;;1.65;;
45536;SDS011;31262;51.978;5.924;2022-08-21T06:28:00;5.72;;;2.42;;
45536;SDS011;31262;51.978;5.924;2022-08-21T06:30:27;9.35;;;4.38;;
45536;SDS011;31262;51.978;5.924;2022-08-21T06:32:53;7.38;;;3.55;;
45536;SDS011;31262;51.978;5.924;2022-08-21T06:35:19;6.57;;;3.85;;
45536;SDS011;31262;51.978;5.924;2022-08-21T06:37:44;8.38;;;4.30;;
45536;SDS011;31262;51.978;5.924;2022-08-21T06:40:10;5.50;;;3.25;;
45536;SDS011;31262;51.978;5.924;2022-08-21T06:42:36;6.03;;;3.13;;
45536;SDS011;31262;51.978;5.924;2022-08-21T06:45:03;7.47;;;2.47;;
45536;SDS011;31262;51.978;5.924;2022-08-21T06:47:29;4.15;;;2.10;;
45536;SDS011;31262;51.978;5.924;2022-08-21T06:49:54;5.85;;;2.10;;
45536;SDS011;31262;51.978;5.924;2022-08-21T06:52:20;5.00;;;1.58;;
45536;SDS011;31262;51.978;5.924;2022-08-21T06:54:45;4.75;;;2.25;;
45536;SDS011;31262;51.978;5.924;2022-08-21T06:57:11;4.63;;;1.90;;
45536;SDS011;31262;51.978;5.924;2022-08-21T06:59:36;4.05;;;1.58;;
45536;SDS011;31262;51.978;5.924;2022-08-21T07:02:02;4.05;;;1.70;;
45536;SDS011;31262;51.978;5.924;2022-08-21T07:04:28;6.63;;;2.17;;
45536;SDS011;31262;51.978;5.924;2022-08-21T07:06:54;7.75;;;3.45;;
45536;SDS011;31262;51.978;5.924;2022-08-21T07:09:20;6.22;;;2.58;;
45536;SDS011;31262;51.978;5.924;2022-08-21T07:11:46;7.30;;;2.63;;
45536;SDS011;31262;51.978;5.924;2022-08-21T07:14:16;8.93;;;3.03;;
45536;SDS011;31262;51.978;5.924;2022-08-21T07:16:42;10.32;;;2.90;;
45536;SDS011;31262;51.978;5.924;2022-08-21T07:19:07;7.90;;;2.72;;
45536;SDS011;31262;51.978;5.924;2022-08-21T07:21:33;6.90;;;2.17;;
45536;SDS011;31262;51.978;5.924;2022-08-21T07:23:58;4.88;;;2.13;;
45536;SDS011;31262;51.978;5.924;2022-08-21T07:26:24;6.57;;;2.60;;
45536;SDS011;31262;51.978;5.924;2022-08-21T07:28:50;7.18;;;2.67;;
45536;SDS011;31262;51.978;5.924;2022-08-21T07:31:17;7.40;;;2.50;;
45536;SDS011;31262;51.978;5.924;2022-08-21T07:33:45;9.07;;;2.77;;
45536;SDS011;31262;51.978;5.924;2022-08-21T07:36:11;10.85;;;3.75;;
45536;SDS011;31262;51.978;5.924;2022-08-21T07:38:37;6.15;;;2.25;;
45536;SDS011;31262;51.978;5.924;2022-08-21T07:41:04;7.72;;;2.50;;
45536;SDS011;31262;51.978;5.924;2022-08-21T07:43:37;7.20;;;2.70;;
45536;SDS011;31262;51.978;5.924;2022-08-21T07:46:03;9.07;;;3.00;;
45536;SDS011;31262;51.978;5.924;2022-08-21T07:48:28;7.25;;;2.63;;
45536;SDS011;31262;51.978;5.924;2022-08-21T07:50:54;8.57;;;2.50;;
45536;SDS011;31262;51.978;5.924;2022-08-21T07:53:20;6.15;;;1.85;;
45536;SDS011;31262;51.978;5.924;2022-08-21T07:55:46;6.65;;;2.10;;
45536;SDS011;31262;51.978;5.924;2022-08-21T07:58:11;5.10;;;0.80;;
45536;SDS011;31262;51.978;5.924;2022-08-21T08:00:37;6.97;;;2.72;;
45536;SDS011;31262;51.978;5.924;2022-08-21T08:03:04;9.25;;;3.63;;
45536;SDS011;31262;51.978;5.924;2022-08-21T08:05:30;11.27;;;4.20;;
45536;SDS011;31262;51.978;5.924;2022-08-21T08:07:57;8.48;;;3.35;;
45536;SDS011;31262;51.978;5.924;2022-08-21T08:10:24;6.75;;;3.05;;
45536;SDS011;31262;51.978;5.924;2022-08-21T08:12:50;11.43;;;3.58;;
45536;SDS011;31262;51.978;5.924;2022-08-21T08:15:18;8.50;;;2.63;;
45536;SDS011;31262;51.978;5.924;2022-08-21T08:17:46;5.45;;;1.73;;
45536;SDS011;31262;51.978;5.924;2022-08-21T08:20:14;12.23;;;2.92;;
45536;SDS011;31262;51.978;5.924;2022-08-21T08:22:41;7.93;;;2.63;;
45536;SDS011;31262;51.978;5.924;2022-08-21T08:25:08;6.20;;;1.65;;
45536;SDS011;31262;51.978;5.924;2022-08-21T08:27:34;6.72;;;1.35;;
45536;SDS011;31262;51.978;5.924;2022-08-21T08:30:01;10.80;;;3.47;;
45536;SDS011;31262;51.978;5.924;2022-08-21T08:32:26;10.18;;;3.33;;
45536;SDS011;31262;51.978;5.924;2022-08-21T08:34:52;7.75;;;1.83;;
45536;SDS011;31262;51.978;5.924;2022-08-21T08:37:18;8.23;;;2.33;;
45536;SDS011;31262;51.978;5.924;2022-08-21T08:39:45;8.60;;;2.78;;
45536;SDS011;31262;51.978;5.924;2022-08-21T08:42:12;10.93;;;3.17;;
45536;SDS011;31262;51.978;5.924;2022-08-21T08:44:40;11.20;;;3.50;;
45536;SDS011;31262;51.978;5.924;2022-08-21T08:47:06;11.40;;;3.53;;
45536;SDS011;31262;51.978;5.924;2022-08-21T08:49:37;9.95;;;2.95;;
45536;SDS011;31262;51.978;5.924;2022-08-21T08:55:03;8.15;;;1.77;;
45536;SDS011;31262;51.978;5.924;2022-08-21T08:57:37;8.93;;;1.63;;
45536;SDS011;31262;51.978;5.924;2022-08-21T09:00:05;6.82;;;1.55;;
45536;SDS011;31262;51.978;5.924;2022-08-21T09:02:35;10.20;;;2.60;;
45536;SDS011;31262;51.978;5.924;2022-08-21T09:05:04;6.53;;;1.88;;
45536;SDS011;31262;51.978;5.924;2022-08-21T09:07:45;7.88;;;1.73;;
45536;SDS011;31262;51.978;5.924;2022-08-21T09:10:43;9.60;;;1.77;;
45536;SDS011;31262;51.978;5.924;2022-08-21T09:18:30;7.55;;;1.33;;
45536;SDS011;31262;51.978;5.924;2022-08-21T09:21:38;8.35;;;2.08;;
45536;SDS011;31262;51.978;5.924;2022-08-21T09:29:27;7.68;;;1.15;;
45536;SDS011;31262;51.978;5.924;2022-08-21T09:31:56;6.63;;;1.17;;
45536;SDS011;31262;51.978;5.924;2022-08-21T09:34:26;6.38;;;0.75;;
45536;SDS011;31262;51.978;5.924;2022-08-21T09:36:54;4.95;;;0.93;;
45536;SDS011;31262;51.978;5.924;2022-08-21T09:39:28;4.78;;;0.98;;
45536;SDS011;31262;51.978;5.924;2022-08-21T09:41:58;5.25;;;0.80;;
45536;SDS011;31262;51.978;5.924;2022-08-21T09:44:30;5.72;;;0.70;;
45536;SDS011;31262;51.978;5.924;2022-08-21T09:46:59;5.47;;;0.82;;
45536;SDS011;31262;51.978;5.924;2022-08-21T09:49:29;4.47;;;0.85;;
45536;SDS011;31262;51.978;5.924;2022-08-21T09:51:59;5.00;;;0.50;;
45536;SDS011;31262;51.978;5.924;2022-08-21T09:54:29;6.38;;;0.50;;
45536;SDS011;31262;51.978;5.924;2022-08-21T09:56:58;5.20;;;0.75;;
45536;SDS011;31262;51.978;5.924;2022-08-21T09:59:45;5.50;;;0.60;;
45536;SDS011;31262;51.978;5.924;2022-08-21T10:04:50;5.32;;;0.45;;
45536;SDS011;31262;51.978;5.924;2022-08-21T10:07:19;5.15;;;0.55;;
45536;SDS011;31262;51.978;5.924;2022-08-21T10:09:57;4.00;;;0.60;;
45536;SDS011;31262;51.978;5.924;2022-08-21T10:15:24;6.10;;;0.70;;
45536;SDS011;31262;51.978;5.924;2022-08-21T10:21:02;4.78;;;0.52;;
45536;SDS011;31262;51.978;5.924;2022-08-21T10:23:51;7.25;;;2.90;;
45536;SDS011;31262;51.978;5.924;2022-08-21T10:26:30;5.07;;;1.02;;
45536;SDS011;31262;51.978;5.924;2022-08-21T10:29:08;5.07;;;0.60;;
45536;SDS011;31262;51.978;5.924;2022-08-21T10:32:03;4.75;;;0.50;;
45536;SDS011;31262;51.978;5.924;2022-08-21T10:40:54;4.97;;;0.50;;
45536;SDS011;31262;51.978;5.924;2022-08-21T10:49:13;4.25;;;0.68;;
45536;SDS011;31262;51.978;5.924;2022-08-21T10:54:47;3.90;;;0.50;;
45536;SDS011;31262;51.978;5.924;2022-08-21T10:57:19;3.55;;;0.45;;
45536;SDS011;31262;51.978;5.924;2022-08-21T10:59:55;6.25;;;0.52;;
45536;SDS011;31262;51.978;5.924;2022-08-21T11:02:27;3.88;;;0.50;;
45536;SDS011;31262;51.978;5.924;2022-08-21T11:10:24;3.65;;;0.50;;
45536;SDS011;31262;51.978;5.924;2022-08-21T11:18:53;3.05;;;0.30;;
45536;SDS011;31262;51.978;5.924;2022-08-21T11:21:34;4.30;;;0.50;;
45536;SDS011;31262;51.978;5.924;2022-08-21T11:26:39;3.08;;;0.40;;
45536;SDS011;31262;51.978;5.924;2022-08-21T11:31:54;1.60;;;0.22;;
45536;SDS011;31262;51.978;5.924;2022-08-21T11:40:10;3.13;;;0.30;;
45536;SDS011;31262;51.978;5.924;2022-08-21T11:50:53;2.63;;;0.40;;
45536;SDS011;31262;51.978;5.924;2022-08-21T11:56:00;2.88;;;0.40;;
45536;SDS011;31262;51.978;5.924;2022-08-21T11:58:32;4.18;;;0.50;;
45536;SDS011;31262;51.978;5.924;2022-08-21T12:01:07;3.75;;;0.40;;
45536;SDS011;31262;51.978;5.924;2022-08-21T12:03:54;5.57;;;0.70;;
45536;SDS011;31262;51.978;5.924;2022-08-21T12:06:31;4.50;;;0.63;;
45536;SDS011;31262;51.978;5.924;2022-08-21T12:09:09;5.20;;;0.70;;
45536;SDS011;31262;51.978;5.924;2022-08-21T12:12:10;4.35;;;0.50;;
45536;SDS011;31262;51.978;5.924;2022-08-21T12:14:48;5.85;;;0.50;;
45536;SDS011;31262;51.978;5.924;2022-08-21T12:17:19;3.30;;;0.50;;
45536;SDS011;31262;51.978;5.924;2022-08-21T12:20:00;4.45;;;0.40;;
45536;SDS011;31262;51.978;5.924;2022-08-21T12:22:40;4.25;;;0.30;;
45536;SDS011;31262;51.978;5.924;2022-08-21T12:25:08;4.05;;;0.55;;
45536;SDS011;31262;51.978;5.924;2022-08-21T12:27:44;4.00;;;0.40;;
45536;SDS011;31262;51.978;5.924;2022-08-21T12:30:23;8.10;;;0.40;;
45536;SDS011;31262;51.978;5.924;2022-08-21T12:33:06;4.35;;;0.40;;
45536;SDS011;31262;51.978;5.924;2022-08-21T12:36:04;3.65;;;0.30;;
45536;SDS011;31262;51.978;5.924;2022-08-21T12:38:49;2.25;;;0.40;;
45536;SDS011;31262;51.978;5.924;2022-08-21T12:41:27;3.58;;;0.40;;
45536;SDS011;31262;51.978;5.924;2022-08-21T12:50:41;3.58;;;0.30;;
45536;SDS011;31262;51.978;5.924;2022-08-21T12:55:51;3.47;;;0.35;;
45536;SDS011;31262;51.978;5.924;2022-08-21T12:58:20;2.58;;;0.35;;
45536;SDS011;31262;51.978;5.924;2022-08-21T13:00:51;4.38;;;0.30;;
45536;SDS011;31262;51.978;5.924;2022-08-21T13:03:29;2.83;;;0.30;;
45536;SDS011;31262;51.978;5.924;2022-08-21T13:05:57;1.67;;;0.40;;
45536;SDS011;31262;51.978;5.924;2022-08-21T13:08:24;4.68;;;0.40;;
45536;SDS011;31262;51.978;5.924;2022-08-21T13:10:56;2.80;;;0.40;;
45536;SDS011;31262;51.978;5.924;2022-08-21T13:13:27;2.55;;;0.35;;
45536;SDS011;31262;51.978;5.924;2022-08-21T13:15:57;3.97;;;0.35;;
45536;SDS011;31262;51.978;5.924;2022-08-21T13:18:26;2.38;;;0.30;;
45536;SDS011;31262;51.978;5.924;2022-08-21T13:21:05;2.53;;;0.30;;
45536;SDS011;31262;51.978;5.924;2022-08-21T13:23:32;1.98;;;0.30;;
45536;SDS011;31262;51.978;5.924;2022-08-21T13:25:58;4.65;;;0.40;;
45536;SDS011;31262;51.978;5.924;2022-08-21T13:28:24;2.30;;;0.30;;
45536;SDS011;31262;51.978;5.924;2022-08-21T13:30:58;2.83;;;0.30;;
45536;SDS011;31262;51.978;5.924;2022-08-21T13:33:26;2.85;;;0.30;;
45536;SDS011;31262;51.978;5.924;2022-08-21T13:38:22;4.55;;;0.50;;
45536;SDS011;31262;51.978;5.924;2022-08-21T13:40:55;3.20;;;0.35;;
45536;SDS011;31262;51.978;5.924;2022-08-21T13:43:30;2.40;;;0.40;;
45536;SDS011;31262;51.978;5.924;2022-08-21T13:45:58;2.75;;;0.40;;
45536;SDS011;31262;51.978;5.924;2022-08-21T13:48:28;2.53;;;0.35;;
45536;SDS011;31262;51.978;5.924;2022-08-21T13:50:56;1.77;;;0.30;;
45536;SDS011;31262;51.978;5.924;2022-08-21T13:53:28;3.40;;;0.40;;
45536;SDS011;31262;51.978;5.924;2022-08-21T13:55:56;3.80;;;0.38;;
45536;SDS011;31262;51.978;5.924;2022-08-21T13:58:27;2.33;;;0.25;;
45536;SDS011;31262;51.978;5.924;2022-08-21T14:04:22;2.13;;;0.30;;
45536;SDS011;31262;51.978;5.924;2022-08-21T14:06:50;1.50;;;0.30;;
45536;SDS011;31262;51.978;5.924;2022-08-21T14:09:33;1.55;;;0.30;;
45536;SDS011;31262;51.978;5.924;2022-08-21T14:12:26;1.92;;;0.30;;
45536;SDS011;31262;51.978;5.924;2022-08-21T14:14:55;2.80;;;0.30;;
45536;SDS011;31262;51.978;5.924;2022-08-21T14:17:26;2.65;;;0.30;;
45536;SDS011;31262;51.978;5.924;2022-08-21T14:20:04;4.28;;;0.38;;
45536;SDS011;31262;51.978;5.924;2022-08-21T14:22:39;1.80;;;0.30;;
45536;SDS011;31262;51.978;5.924;2022-08-21T14:25:08;1.67;;;0.28;;
45536;SDS011;31262;51.978;5.924;2022-08-21T14:30:08;2.20;;;0.30;;
45536;SDS011;31262;51.978;5.924;2022-08-21T14:32:43;1.75;;;0.30;;
45536;SDS011;31262;51.978;5.924;2022-08-21T14:35:11;1.58;;;0.30;;
45536;SDS011;31262;51.978;5.924;2022-08-21T14:37:40;3.20;;;0.30;;
45536;SDS011;31262;51.978;5.924;2022-08-21T14:40:07;1.63;;;0.30;;
45536;SDS011;31262;51.978;5.924;2022-08-21T14:42:33;2.33;;;0.50;;
45536;SDS011;31262;51.978;5.924;2022-08-21T14:45:00;2.67;;;0.68;;
45536;SDS011;31262;51.978;5.924;2022-08-21T14:47:30;3.30;;;0.57;;
45536;SDS011;31262;51.978;5.924;2022-08-21T14:49:55;4.50;;;0.50;;
45536;SDS011;31262;51.978;5.924;2022-08-21T14:52:21;3.67;;;0.30;;
45536;SDS011;31262;51.978;5.924;2022-08-21T14:54:48;5.60;;;0.30;;
45536;SDS011;31262;51.978;5.924;2022-08-21T14:57:14;3.38;;;0.30;;
45536;SDS011;31262;51.978;5.924;2022-08-21T14:59:40;1.27;;;0.20;;
45536;SDS011;31262;51.978;5.924;2022-08-21T15:02:06;2.00;;;0.22;;
45536;SDS011;31262;51.978;5.924;2022-08-21T15:04:33;2.50;;;0.40;;
45536;SDS011;31262;51.978;5.924;2022-08-21T15:06:59;1.80;;;0.25;;
45536;SDS011;31262;51.978;5.924;2022-08-21T15:09:25;1.33;;;0.30;;
45536;SDS011;31262;51.978;5.924;2022-08-21T15:11:55;2.80;;;0.30;;
45536;SDS011;31262;51.978;5.924;2022-08-21T15:14:25;2.10;;;0.43;;
45536;SDS011;31262;51.978;5.924;2022-08-21T15:16:52;1.52;;;0.30;;
45536;SDS011;31262;51.978;5.924;2022-08-21T15:19:18;1.23;;;0.20;;
45536;SDS011;31262;51.978;5.924;2022-08-21T15:21:44;1.67;;;0.30;;
45536;SDS011;31262;51.978;5.924;2022-08-21T15:24:09;1.80;;;0.25;;
45536;SDS011;31262;51.978;5.924;2022-08-21T15:26:35;2.40;;;0.32;;
45536;SDS011;31262;51.978;5.924;2022-08-21T15:29:01;3.00;;;0.40;;
45536;SDS011;31262;51.978;5.924;2022-08-21T15:31:27;4.93;;;0.40;;
45536;SDS011;31262;51.978;5.924;2022-08-21T15:33:53;1.65;;;0.30;;
45536;SDS011;31262;51.978;5.924;2022-08-21T15:36:20;3.00;;;0.50;;
45536;SDS011;31262;51.978;5.924;2022-08-21T15:38:45;3.13;;;0.30;;
45536;SDS011;31262;51.978;5.924;2022-08-21T15:41:11;2.05;;;0.40;;
45536;SDS011;31262;51.978;5.924;2022-08-21T15:43:46;3.65;;;0.30;;
45536;SDS011;31262;51.978;5.924;2022-08-21T15:46:14;2.60;;;0.40;;
45536;SDS011;31262;51.978;5.924;2022-08-21T15:48:41;2.17;;;0.30;;
45536;SDS011;31262;51.978;5.924;2022-08-21T15:51:08;2.28;;;0.40;;
45536;SDS011;31262;51.978;5.924;2022-08-21T15:53:35;1.90;;;0.32;;
45536;SDS011;31262;51.978;5.924;2022-08-21T15:56:03;2.58;;;0.35;;
45536;SDS011;31262;51.978;5.924;2022-08-21T15:58:30;1.92;;;0.40;;
45536;SDS011;31262;51.978;5.924;2022-08-21T16:00:58;1.88;;;0.30;;
45536;SDS011;31262;51.978;5.924;2022-08-21T16:03:25;2.40;;;0.40;;
45536;SDS011;31262;51.978;5.924;2022-08-21T16:05:51;3.13;;;0.47;;
45536;SDS011;31262;51.978;5.924;2022-08-21T16:08:18;2.90;;;0.30;;
45536;SDS011;31262;51.978;5.924;2022-08-21T16:10:44;3.63;;;0.65;;
45536;SDS011;31262;51.978;5.924;2022-08-21T16:13:29;3.65;;;0.50;;
45536;SDS011;31262;51.978;5.924;2022-08-21T16:16:03;4.15;;;0.65;;
45536;SDS011;31262;51.978;5.924;2022-08-21T16:18:30;4.03;;;0.60;;
45536;SDS011;31262;51.978;5.924;2022-08-21T16:20:56;3.13;;;0.47;;
45536;SDS011;31262;51.978;5.924;2022-08-21T16:23:22;2.63;;;0.40;;
45536;SDS011;31262;51.978;5.924;2022-08-21T16:25:47;3.65;;;0.50;;
45536;SDS011;31262;51.978;5.924;2022-08-21T16:28:15;2.05;;;0.40;;